Time;durP1;ratioP1;P1;durP2;ratioP2;P2;SDS_P1;SDS_P2;PMS_P1;PMS_P2;Temp;Humidity;BMP_temperature;BMP_pressure;BME280_temperature;BME280_humidity;BME280_pressure;Samples;Min_cycle;Max_cycle;Signal;HPM_P1;HPM_P2
2022/10/05 06:26:27;;;;;;;1.20;1.10;;;24.30;66.90;;;;;;5176183;22;20446;31
2022/10/05 06:32:37;;;;;;;1.30;1.20;;;24.40;66.90;;;;;;5012896;23;20477;-95
2022/10/05 06:35:28;;;;;;;1.23;1.13;;;24.40;67.10;;;;;;5068415;28;20504;-94
2022/10/05 06:38:42;;;;;;;2.13;1.20;;;24.40;67.10;;;;;;5067678;28;20454;-95
2022/10/05 06:41:38;;;;;;;1.40;1.30;;;24.40;67.10;;;;;;5069004;28;20465;-94
2022/10/05 06:44:23;;;;;;;1.90;1.50;;;24.40;67.10;;;;;;5067686;28;20529;-94
2022/10/05 06:50:31;;;;;;;2.80;1.50;;;24.40;67.10;;;;;;5072172;28;20429;-96
2022/10/05 06:56:12;;;;;;;1.70;1.60;;;24.40;67.30;;;;;;5068080;28;20441;-96
2022/10/05 06:59:04;;;;;;;1.30;1.20;;;24.40;67.30;;;;;;5049940;28;20506;-94
2022/10/05 07:01:49;;;;;;;1.30;1.20;;;24.40;67.30;;;;;;5069862;28;20447;-94
2022/10/05 07:04:33;;;;;;;2.20;1.47;;;24.50;67.30;;;;;;5067778;28;20515;-95
2022/10/05 07:07:02;;;;;;;2.40;1.30;;;24.50;67.30;;;;;;5065303;28;20556;-96
2022/10/05 07:09:40;;;;;;;1.60;1.50;;;24.50;67.40;;;;;;5064981;28;20462;-95
2022/10/05 07:12:31;;;;;;;1.37;1.27;;;24.50;67.40;;;;;;5062974;28;20792;-95
2022/10/05 07:15:23;;;;;;;1.50;1.40;;;24.50;67.30;;;;;;5047823;28;20533;-95
2022/10/05 07:18:04;;;;;;;1.57;1.47;;;24.50;67.30;;;;;;5066268;28;20441;-96
2022/10/05 07:20:40;;;;;;;1.60;1.50;;;24.50;68.20;;;;;;5066048;28;20447;-96
2022/10/05 07:23:24;;;;;;;2.40;1.63;;;24.50;67.40;;;;;;5056438;28;20451;-90
2022/10/05 07:25:59;;;;;;;1.20;1.10;;;24.50;68.30;;;;;;5054589;28;20446;-91
2022/10/05 07:28:33;;;;;;;1.40;1.30;;;24.40;67.20;;;;;;5054735;28;20525;-94
2022/10/05 07:31:06;;;;;;;1.97;1.27;;;24.50;67.30;;;;;;5055020;28;20449;-92
2022/10/05 07:33:42;;;;;;;1.83;1.30;;;24.50;67.10;;;;;;5054443;28;20849;-91
2022/10/05 07:39:10;;;;;;;1.23;1.13;;;24.50;67.00;;;;;;5054935;28;20413;-93
2022/10/05 07:41:47;;;;;;;2.07;1.13;;;24.50;67.10;;;;;;5062117;28;20529;-95
2022/10/05 07:44:28;;;;;;;1.30;1.20;;;24.50;67.20;;;;;;5046260;28;20518;-96
2022/10/05 07:49:52;;;;;;;1.40;1.30;;;24.50;67.30;;;;;;5059895;28;20433;-94
2022/10/05 07:52:24;;;;;;;3.90;1.50;;;24.50;67.30;;;;;;5055494;28;20536;-87
2022/10/05 07:55:01;;;;;;;3.10;1.20;;;24.50;67.30;;;;;;5055041;28;20505;-86
2022/10/05 07:57:37;;;;;;;1.30;1.20;;;24.50;67.00;;;;;;5056918;28;20441;-86
2022/10/05 08:00:06;;;;;;;1.30;1.20;;;24.60;66.90;;;;;;5061653;28;20460;-85
2022/10/05 08:02:43;;;;;;;1.10;1.00;;;24.40;66.60;;;;;;5062822;28;20474;-90
2022/10/05 08:05:18;;;;;;;1.40;1.27;;;24.50;66.90;;;;;;5020085;28;20450;-90
2022/10/05 08:07:47;;;;;;;3.23;1.37;;;24.40;67.00;;;;;;5035669;28;20474;-88
2022/10/05 08:10:25;;;;;;;3.57;1.37;;;24.40;67.70;;;;;;5053163;28;20504;-90
2022/10/05 08:13:02;;;;;;;4.50;1.60;;;24.40;67.50;;;;;;5053951;28;20442;-88
2022/10/05 08:15:34;;;;;;;1.37;1.27;;;24.40;67.20;;;;;;5033581;28;20509;-88
2022/10/05 08:18:03;;;;;;;4.80;1.20;;;24.40;67.00;;;;;;5033613;28;20452;-87
2022/10/05 08:20:40;;;;;;;1.70;1.10;;;24.40;67.00;;;;;;5033282;28;20442;-87
2022/10/05 08:23:17;;;;;;;1.23;1.13;;;24.70;67.40;;;;;;5033329;28;20547;-90
2022/10/05 08:25:55;;;;;;;2.33;1.30;;;24.50;67.10;;;;;;5033028;28;20431;-91
2022/10/05 08:28:26;;;;;;;1.53;1.37;;;24.40;67.00;;;;;;5033679;28;20522;-90
2022/10/05 08:30:59;;;;;;;1.73;1.13;;;24.40;66.80;;;;;;5033923;28;20580;-91
2022/10/05 08:33:32;;;;;;;1.50;1.20;;;24.40;66.80;;;;;;5033377;28;20468;-91
2022/10/05 08:36:07;;;;;;;2.57;1.50;;;24.40;66.80;;;;;;5033740;28;20435;-91
2022/10/05 08:38:34;;;;;;;1.87;1.50;;;24.40;66.70;;;;;;5033463;28;20996;-88
2022/10/05 08:41:43;;;;;;;4.63;1.37;;;24.40;66.70;;;;;;5033261;28;20470;-88
2022/10/05 08:44:48;;;;;;;4.03;1.50;;;24.40;66.60;;;;;;5020686;28;20454;-92
2022/10/05 08:47:31;;;;;;;4.20;1.43;;;24.40;66.60;;;;;;4996675;28;20443;-92
2022/10/05 08:50:16;;;;;;;1.30;1.20;;;24.50;66.90;;;;;;5032721;28;20450;-87
2022/10/05 08:53:11;;;;;;;1.50;1.30;;;24.40;66.80;;;;;;5033029;28;20514;-92
2022/10/05 08:55:48;;;;;;;2.43;1.00;;;24.40;66.60;;;;;;5033475;28;20490;-93
2022/10/05 08:58:42;;;;;;;2.17;1.33;;;24.40;66.70;;;;;;5034064;28;20458;-90
2022/10/05 09:01:18;;;;;;;4.87;1.40;;;24.50;66.80;;;;;;5048717;28;20429;-88
2022/10/05 09:04:19;;;;;;;3.63;1.60;;;24.40;66.80;;;;;;5052444;28;20451;-87
2022/10/05 09:07:09;;;;;;;1.20;0.97;;;24.40;66.80;;;;;;5052910;28;20444;-88
2022/10/05 09:10:01;;;;;;;1.20;1.07;;;24.40;66.70;;;;;;5053128;28;20475;-86
2022/10/05 09:12:46;;;;;;;1.77;1.10;;;24.40;66.80;;;;;;5052844;28;20438;-88
2022/10/05 09:15:46;;;;;;;1.20;1.00;;;24.40;66.80;;;;;;5052750;28;21013;-88
2022/10/05 09:18:33;;;;;;;1.73;1.20;;;24.40;66.80;;;;;;5052425;28;20430;-89
2022/10/05 09:21:06;;;;;;;1.43;1.33;;;24.40;66.90;;;;;;5052708;28;20433;-86
2022/10/05 09:23:39;;;;;;;4.40;1.30;;;24.40;67.00;;;;;;5052601;28;20800;-86
2022/10/05 09:26:41;;;;;;;1.63;1.40;;;24.50;67.00;;;;;;5052735;28;20427;-88
2022/10/05 09:29:32;;;;;;;2.30;1.00;;;24.50;66.90;;;;;;5052405;28;20454;-86
2022/10/05 09:32:19;;;;;;;1.80;1.03;;;24.40;66.90;;;;;;5052677;28;20446;-91
2022/10/05 09:35:04;;;;;;;2.90;1.20;;;24.50;67.90;;;;;;5053494;28;20478;-90
2022/10/05 09:38:02;;;;;;;4.03;1.87;;;24.50;67.10;;;;;;5055811;28;20425;-92
2022/10/05 09:41:00;;;;;;;2.10;2.00;;;24.50;67.00;;;;;;5056492;28;20463;-90
2022/10/05 09:43:59;;;;;;;3.77;2.00;;;24.40;67.20;;;;;;5028647;28;20458;-87
2022/10/05 09:46:54;;;;;;;2.23;1.73;;;24.30;67.20;;;;;;5036439;28;20441;-85
2022/10/05 09:49:50;;;;;;;1.47;1.37;;;24.40;67.40;;;;;;5036281;28;20530;-88
2022/10/05 09:52:38;;;;;;;16.83;1.47;;;24.40;67.10;;;;;;5018668;28;20439;-84
2022/10/05 09:55:42;;;;;;;1.70;1.20;;;24.40;67.00;;;;;;5038979;28;20550;-88
2022/10/05 09:58:47;;;;;;;2.60;1.20;;;24.40;66.80;;;;;;5035981;28;20453;-93
2022/10/05 10:01:40;;;;;;;3.23;1.10;;;24.40;66.90;;;;;;5035648;28;20852;-92
2022/10/05 10:04:28;;;;;;;3.00;1.37;;;24.40;66.80;;;;;;5035983;28;20442;-90
2022/10/05 10:07:14;;;;;;;1.50;1.40;;;24.40;66.90;;;;;;5036174;28;20462;-90
2022/10/05 10:09:52;;;;;;;7.27;2.10;;;24.40;66.90;;;;;;5051839;28;20465;-91
2022/10/05 10:12:34;;;;;;;1.63;1.53;;;24.40;67.20;;;;;;5055793;28;20430;-92
2022/10/05 10:15:41;;;;;;;2.70;1.60;;;24.50;68.50;;;;;;5056046;28;20471;-90
2022/10/05 10:18:42;;;;;;;3.00;1.60;;;24.50;67.90;;;;;;5025469;28;20455;-93
2022/10/05 10:21:44;;;;;;;2.23;1.30;;;24.50;68.40;;;;;;5035964;28;20448;-90
2022/10/05 10:24:29;;;;;;;1.90;1.70;;;24.50;68.50;;;;;;5035663;28;20450;-91
2022/10/05 10:27:15;;;;;;;2.83;1.63;;;24.40;68.80;;;;;;5035983;28;20435;-91
2022/10/05 10:30:02;;;;;;;1.50;1.40;;;24.50;69.20;;;;;;5036053;28;20440;-89
2022/10/05 10:33:01;;;;;;;1.80;1.70;;;24.50;69.60;;;;;;5039340;28;20478;-92
2022/10/05 10:35:34;;;;;;;3.00;2.07;;;24.50;70.10;;;;;;5035670;28;20493;-90
2022/10/05 10:38:35;;;;;;;1.67;1.57;;;24.50;70.80;;;;;;5035363;28;20493;-91
2022/10/05 10:41:53;;;;;;;2.90;1.63;;;24.50;71.10;;;;;;5034819;28;20447;-87
2022/10/05 10:44:57;;;;;;;1.73;1.20;;;24.50;71.40;;;;;;5034748;28;20453;-87
2022/10/05 10:47:54;;;;;;;1.77;1.47;;;24.50;71.50;;;;;;5034906;28;20496;-87
2022/10/05 10:51:01;;;;;;;3.10;1.03;;;24.50;71.60;;;;;;5031129;28;20448;-87
2022/10/05 10:53:54;;;;;;;2.97;1.37;;;24.50;71.40;;;;;;5034728;28;20443;-88
2022/10/05 10:56:35;;;;;;;1.93;1.47;;;24.50;71.50;;;;;;5034638;28;21035;-88
2022/10/05 10:59:38;;;;;;;1.40;1.20;;;24.50;71.40;;;;;;5034744;28;20522;-84
2022/10/05 11:02:25;;;;;;;1.73;1.20;;;24.60;71.40;;;;;;5034599;28;20530;-86
2022/10/05 11:05:03;;;;;;;4.20;1.80;;;24.60;71.40;;;;;;5034380;28;20856;-85
2022/10/05 11:07:52;;;;;;;2.13;1.37;;;24.60;71.50;;;;;;5034615;28;20443;-83
2022/10/05 11:10:46;;;;;;;1.83;1.40;;;24.60;71.70;;;;;;5035284;28;20462;-87
2022/10/05 11:13:51;;;;;;;3.67;1.30;;;24.60;71.10;;;;;;5017231;28;20484;-84
2022/10/05 11:16:41;;;;;;;5.10;1.90;;;24.60;69.90;;;;;;5054057;28;20507;-85
2022/10/05 11:19:29;;;;;;;5.37;1.57;;;24.60;69.40;;;;;;5054196;28;20770;-85
2022/10/05 11:43:18;;;;;;;3.90;1.37;;;24.60;69.30;;;;;;4953034;28;20467;-84
2022/10/05 11:46:00;;;;;;;5.93;1.43;;;24.60;69.30;;;;;;4972415;28;20505;-85
2022/10/05 11:49:00;;;;;;;5.60;1.67;;;24.70;69.40;;;;;;4972788;28;20445;-85
2022/10/05 11:51:45;;;;;;;1.67;1.10;;;24.70;69.10;;;;;;4970564;28;20882;-87
2022/10/05 11:54:27;;;;;;;2.83;1.33;;;24.70;69.10;;;;;;4983975;28;20996;-87
2022/10/05 11:56:59;;;;;;;2.40;1.13;;;24.70;69.00;;;;;;5044560;28;20443;-87
2022/10/05 11:59:34;;;;;;;4.70;1.73;;;24.90;69.20;;;;;;5034048;28;20444;-87
2022/10/05 12:02:14;;;;;;;2.00;1.33;;;24.80;69.00;;;;;;5034620;28;20437;-87
2022/10/05 12:04:50;;;;;;;2.37;1.30;;;24.80;68.90;;;;;;5035309;28;20451;-88
2022/10/05 12:07:24;;;;;;;2.17;1.40;;;24.80;69.00;;;;;;5053604;28;20444;-88
2022/10/05 12:10:15;;;;;;;3.23;1.57;;;24.80;69.00;;;;;;5045362;28;20466;-88
2022/10/05 12:13:01;;;;;;;4.73;2.07;;;24.80;69.00;;;;;;5033306;28;20469;-90
2022/10/05 12:15:37;;;;;;;1.53;1.40;;;24.80;69.10;;;;;;5033326;28;20574;-89
2022/10/05 12:18:12;;;;;;;1.80;1.70;;;24.90;69.40;;;;;;5033222;28;20462;-86
2022/10/05 12:20:45;;;;;;;2.07;1.40;;;25.10;69.40;;;;;;5033415;28;20436;-94
2022/10/05 12:23:19;;;;;;;2.20;1.40;;;24.90;69.40;;;;;;5034253;28;20455;-94
2022/10/05 12:25:52;;;;;;;2.57;1.20;;;25.00;69.50;;;;;;5034388;28;20443;-94
2022/10/05 12:28:24;;;;;;;1.93;1.30;;;24.90;69.20;;;;;;5034545;28;20440;-94
2022/10/05 12:31:19;;;;;;;1.20;1.00;;;24.90;69.10;;;;;;5034813;28;20448;-94
2022/10/05 12:33:53;;;;;;;1.80;1.57;;;24.90;69.00;;;;;;5034671;28;21007;-95
2022/10/05 12:36:28;;;;;;;4.80;1.60;;;25.00;69.20;;;;;;5034088;28;20511;-94
2022/10/05 12:39:03;;;;;;;2.10;1.67;;;24.90;69.10;;;;;;5034013;28;20463;-95
2022/10/05 12:41:35;;;;;;;2.33;1.33;;;25.00;69.10;;;;;;5033742;28;20486;-95
2022/10/05 12:44:18;;;;;;;2.90;1.10;;;24.90;69.00;;;;;;5033968;28;20435;-94
2022/10/05 12:46:58;;;;;;;3.13;1.70;;;25.00;69.00;;;;;;5033862;28;20459;-95
2022/10/05 12:49:44;;;;;;;2.50;1.20;;;25.00;69.00;;;;;;5033721;28;20440;-95
2022/10/05 12:52:26;;;;;;;4.53;1.20;;;24.90;68.90;;;;;;5033654;28;20511;-94
2022/10/05 12:55:05;;;;;;;1.20;1.10;;;25.10;69.10;;;;;;5034437;28;20810;-89
2022/10/05 12:57:38;;;;;;;3.00;1.43;;;24.90;69.00;;;;;;5033154;28;20448;-90
2022/10/05 13:00:09;;;;;;;3.13;1.40;;;25.00;69.40;;;;;;5032883;28;20448;-89
2022/10/05 13:02:42;;;;;;;2.07;1.40;;;25.10;69.50;;;;;;5032679;28;20466;-89
2022/10/05 13:05:25;;;;;;;3.63;1.20;;;25.10;69.50;;;;;;5033164;28;20808;-90
2022/10/05 13:08:12;;;;;;;1.90;1.17;;;25.20;69.50;;;;;;5032916;28;20816;-90
2022/10/05 13:10:45;;;;;;;1.30;1.20;;;25.30;69.60;;;;;;5032901;28;20972;-90
2022/10/05 13:13:39;;;;;;;1.03;0.93;;;25.20;69.70;;;;;;5036876;28;20447;-90
2022/10/05 13:16:23;;;;;;;4.90;1.20;;;25.30;69.70;;;;;;5036671;28;20489;-90
2022/10/05 13:19:05;;;;;;;1.30;1.20;;;25.30;69.70;;;;;;5036678;28;20449;-90
2022/10/05 13:21:39;;;;;;;3.23;1.03;;;25.40;69.70;;;;;;5036621;28;20453;-90
2022/10/05 13:24:16;;;;;;;4.63;1.37;;;25.40;69.70;;;;;;5036766;28;20460;-89
2022/10/05 13:26:47;;;;;;;1.10;1.00;;;25.50;69.70;;;;;;5036879;28;20444;-90
2022/10/05 13:29:23;;;;;;;1.50;1.10;;;25.50;69.70;;;;;;5036490;28;20445;-89
2022/10/05 13:31:54;;;;;;;1.37;1.27;;;25.50;69.70;;;;;;5036381;28;20459;-87
2022/10/05 13:34:31;;;;;;;1.10;1.00;;;25.50;69.70;;;;;;5035997;28;20526;-88
2022/10/05 13:37:07;;;;;;;1.77;1.40;;;25.50;69.70;;;;;;5035960;28;20499;-90
2022/10/05 13:39:49;;;;;;;2.03;1.20;;;25.50;69.70;;;;;;5036427;28;20441;-90
2022/10/05 13:42:21;;;;;;;1.00;0.90;;;25.50;69.70;;;;;;5036207;28;20572;-89
2022/10/05 13:44:51;;;;;;;2.13;1.27;;;25.50;69.70;;;;;;5036186;28;20450;-90
2022/10/05 13:47:26;;;;;;;2.17;0.90;;;25.50;69.70;;;;;;5036183;28;20447;-90
2022/10/05 13:49:59;;;;;;;2.13;1.10;;;25.50;69.60;;;;;;5036244;28;20531;-89
2022/10/05 13:52:41;;;;;;;1.30;1.20;;;25.50;69.70;;;;;;5036022;28;20952;-88
2022/10/05 13:55:21;;;;;;;1.40;1.27;;;25.50;70.50;;;;;;5036351;28;20489;-89
2022/10/05 13:57:56;;;;;;;1.33;1.20;;;25.50;69.70;;;;;;5036239;28;20469;-88
2022/10/05 14:00:25;;;;;;;1.87;1.10;;;25.50;69.70;;;;;;5036371;28;20897;-88
2022/10/05 14:02:55;;;;;;;1.10;1.00;;;25.50;69.70;;;;;;5036477;28;20452;-88
2022/10/05 14:05:24;;;;;;;1.83;1.10;;;25.50;69.70;;;;;;5035937;28;20457;-88
2022/10/05 14:07:57;;;;;;;1.40;1.30;;;25.50;69.70;;;;;;5035790;28;20453;-88
2022/10/05 14:10:36;;;;;;;1.00;0.90;;;25.50;69.70;;;;;;5035806;28;20436;-92
2022/10/05 14:13:20;;;;;;;1.10;1.00;;;25.50;69.60;;;;;;5036734;28;20442;-93
2022/10/05 14:16:21;;;;;;;0.90;0.80;;;25.40;68.30;;;;;;5036073;28;20486;-93
2022/10/05 14:18:57;;;;;;;1.13;1.03;;;25.40;67.90;;;;;;4993854;28;20452;-93
2022/10/05 14:21:28;;;;;;;1.30;1.20;;;25.30;68.00;;;;;;5035994;28;20452;-93
2022/10/05 14:23:56;;;;;;;2.60;1.33;;;25.20;68.00;;;;;;5035231;28;20442;-92
2022/10/05 14:26:34;;;;;;;1.93;0.97;;;25.20;68.00;;;;;;5035749;28;20458;-93
2022/10/05 14:29:03;;;;;;;4.53;1.30;;;25.20;68.00;;;;;;5035710;28;20481;-93
2022/10/05 14:31:34;;;;;;;1.17;1.07;;;25.20;68.10;;;;;;5036105;28;20441;-92
2022/10/05 14:34:31;;;;;;;4.70;1.10;;;25.20;68.10;;;;;;5035733;28;20452;-93
2022/10/05 14:37:03;;;;;;;1.70;1.10;;;25.20;68.00;;;;;;5035897;28;20988;-93
2022/10/05 14:39:33;;;;;;;1.00;0.90;;;25.10;68.10;;;;;;5035530;28;20441;-92
2022/10/05 14:42:13;;;;;;;1.87;1.10;;;25.00;68.10;;;;;;5035359;28;20480;-92
2022/10/05 14:44:41;;;;;;;1.30;1.10;;;25.10;68.30;;;;;;5036146;28;20452;-93
2022/10/05 14:47:21;;;;;;;1.33;0.93;;;25.00;68.30;;;;;;5035408;28;20449;-92
2022/10/05 14:50:14;;;;;;;1.50;1.10;;;25.00;68.20;;;;;;5035556;28;20497;-92
2022/10/05 14:52:46;;;;;;;3.97;1.30;;;25.00;68.30;;;;;;5035058;28;20515;-93
2022/10/05 14:55:54;;;;;;;2.60;1.30;;;25.00;68.60;;;;;;5035253;28;20804;-91
2022/10/05 14:58:33;;;;;;;2.03;1.33;;;25.00;68.70;;;;;;5024665;28;20463;-92
2022/10/05 15:01:12;;;;;;;1.00;0.90;;;25.00;69.00;;;;;;5034654;28;20455;-89
2022/10/05 15:03:50;;;;;;;2.43;1.70;;;25.00;69.10;;;;;;5034991;28;20442;-92
2022/10/05 15:06:27;;;;;;;3.17;1.20;;;25.00;69.00;;;;;;5034704;28;20958;-91
2022/10/05 15:09:27;;;;;;;3.20;1.00;;;25.00;69.00;;;;;;5034729;28;20807;-91
2022/10/05 15:11:56;;;;;;;2.00;1.20;;;25.00;69.10;;;;;;5035002;28;20916;-91
2022/10/05 15:14:27;;;;;;;1.23;1.13;;;25.00;69.30;;;;;;5035153;28;20466;-91
2022/10/05 15:16:57;;;;;;;3.33;1.40;;;25.00;69.30;;;;;;5034875;28;20506;-91
2022/10/05 15:19:30;;;;;;;1.30;1.17;;;25.00;69.30;;;;;;5034860;28;20877;-91
2022/10/05 15:22:13;;;;;;;0.90;0.80;;;25.00;69.30;;;;;;5034537;28;20447;-91
2022/10/05 15:24:44;;;;;;;1.30;1.20;;;25.00;69.40;;;;;;5034572;28;20432;-91
2022/10/05 15:27:22;;;;;;;1.10;1.00;;;25.00;69.40;;;;;;5034721;28;20471;-92
2022/10/05 15:30:02;;;;;;;4.57;1.47;;;25.00;69.40;;;;;;5035408;28;20840;-91
2022/10/05 15:32:40;;;;;;;1.93;1.23;;;25.00;69.40;;;;;;5036566;28;20436;-91
2022/10/05 15:35:34;;;;;;;1.13;1.03;;;25.00;69.40;;;;;;5041974;28;20504;-89
2022/10/05 15:38:11;;;;;;;1.13;1.03;;;25.10;69.30;;;;;;5035414;28;20497;-90
2022/10/05 15:40:46;;;;;;;1.30;1.20;;;25.00;69.50;;;;;;5035001;28;20452;-90
2022/10/05 15:43:17;;;;;;;1.07;0.97;;;25.00;69.80;;;;;;5034960;28;20537;-89
2022/10/05 15:45:55;;;;;;;1.30;1.20;;;25.00;69.40;;;;;;5034623;28;20988;-90
2022/10/05 15:48:27;;;;;;;0.97;0.90;;;25.10;69.50;;;;;;5034283;28;20447;-89
2022/10/05 15:51:04;;;;;;;1.30;1.10;;;25.00;69.50;;;;;;5035098;28;20448;-91
2022/10/05 15:53:39;;;;;;;1.67;1.10;;;25.00;69.50;;;;;;5034146;28;20436;-90
2022/10/05 15:56:15;;;;;;;1.57;1.20;;;25.10;69.50;;;;;;5034103;28;20484;-90
2022/10/05 15:59:02;;;;;;;1.00;0.90;;;25.10;69.50;;;;;;5033812;28;20446;-91
2022/10/05 16:01:44;;;;;;;1.83;1.20;;;25.10;69.40;;;;;;5033865;28;20472;-90
2022/10/05 16:04:17;;;;;;;1.33;1.23;;;25.00;69.50;;;;;;5034103;28;20792;-90
2022/10/05 16:09:51;;;;;;;1.30;0.97;;;25.00;69.50;;;;;;5033659;28;20447;-90
2022/10/05 16:12:32;;;;;;;1.20;1.10;;;25.00;69.50;;;;;;5034374;28;20425;-91
2022/10/05 16:15:15;;;;;;;1.20;1.00;;;25.00;69.50;;;;;;5034090;28;20535;-91
2022/10/05 16:18:07;;;;;;;1.20;1.10;;;25.00;69.50;;;;;;5033829;28;20523;-90
2022/10/05 16:20:46;;;;;;;1.27;1.17;;;25.00;69.50;;;;;;5034012;28;20452;-90
2022/10/05 16:23:21;;;;;;;1.03;0.93;;;25.00;69.50;;;;;;5033990;28;20435;-91
2022/10/05 16:26:00;;;;;;;1.20;1.00;;;25.00;69.50;;;;;;5033726;28;20430;-90
2022/10/05 16:28:39;;;;;;;1.20;1.10;;;25.00;69.50;;;;;;5034202;28;20437;-90
2022/10/05 16:31:16;;;;;;;1.33;1.20;;;25.00;69.50;;;;;;5033702;28;20531;-91
2022/10/05 16:33:55;;;;;;;1.30;1.20;;;25.00;69.60;;;;;;5033456;28;20479;-89
2022/10/05 16:36:41;;;;;;;1.20;1.10;;;25.00;69.60;;;;;;5033502;28;20485;-90
2022/10/05 16:39:15;;;;;;;1.10;1.00;;;25.00;69.60;;;;;;5033684;28;20560;-90
2022/10/05 16:41:50;;;;;;;1.57;0.80;;;25.00;69.60;;;;;;5033669;28;20818;-90
2022/10/05 16:44:30;;;;;;;1.23;1.00;;;25.00;69.60;;;;;;5033388;28;20940;-90
2022/10/05 16:47:04;;;;;;;1.10;1.00;;;25.00;69.60;;;;;;5036293;28;20436;-90
2022/10/05 16:49:41;;;;;;;1.20;1.10;;;25.00;69.60;;;;;;5037599;28;20437;-89
2022/10/05 16:52:13;;;;;;;1.10;1.00;;;25.00;69.60;;;;;;5037410;28;20542;-90
2022/10/05 16:54:43;;;;;;;1.00;0.90;;;25.00;69.60;;;;;;5037667;28;20470;-90
2022/10/05 16:57:18;;;;;;;1.10;1.00;;;25.00;69.60;;;;;;5037421;28;20574;-90
2022/10/05 17:00:19;;;;;;;1.20;1.03;;;25.00;69.60;;;;;;5037583;28;20450;-90
2022/10/05 17:03:10;;;;;;;1.00;0.90;;;25.00;69.50;;;;;;5037633;28;20452;-91
2022/10/05 17:05:54;;;;;;;1.20;1.10;;;25.00;69.60;;;;;;5037387;28;20440;-89
2022/10/05 17:08:38;;;;;;;1.10;1.00;;;25.00;69.70;;;;;;5037533;28;20493;-90
2022/10/05 17:11:16;;;;;;;2.20;0.90;;;25.00;69.60;;;;;;5037152;28;20523;-90
2022/10/05 17:14:08;;;;;;;1.20;1.10;;;25.00;69.60;;;;;;5037280;28;20532;-90
2022/10/05 17:16:54;;;;;;;1.27;0.90;;;25.00;69.60;;;;;;5037137;28;20484;-89
2022/10/05 17:19:46;;;;;;;1.07;0.97;;;25.00;69.60;;;;;;5037153;28;20531;-89
2022/10/05 17:22:23;;;;;;;1.10;1.00;;;25.00;69.60;;;;;;5037130;28;20961;-88
2022/10/05 17:24:57;;;;;;;1.23;1.13;;;24.90;69.50;;;;;;5037386;28;20455;-90
2022/10/05 17:27:34;;;;;;;0.87;0.87;;;24.90;69.60;;;;;;5036852;28;20466;-89
2022/10/05 17:30:37;;;;;;;0.87;0.80;;;24.90;69.50;;;;;;5036802;28;20543;-90
2022/10/05 17:33:19;;;;;;;1.07;0.97;;;25.00;69.50;;;;;;5036934;28;20451;-90
2022/10/05 17:36:17;;;;;;;1.10;1.00;;;25.00;69.60;;;;;;5037001;28;20522;-89
2022/10/05 17:38:50;;;;;;;1.30;1.20;;;24.90;69.50;;;;;;5037032;28;20471;-89
2022/10/05 17:41:23;;;;;;;1.83;0.80;;;24.90;69.50;;;;;;5036640;28;20535;-89
2022/10/05 17:44:32;;;;;;;0.80;0.80;;;24.90;69.50;;;;;;5037018;28;20468;-90
2022/10/05 17:47:02;;;;;;;1.00;0.90;;;24.90;69.40;;;;;;5016925;28;20445;-90
2022/10/05 17:56:05;;;;;;;1.00;0.90;;;24.90;69.50;;;;;;5036722;28;20455;-88
2022/10/05 17:59:05;;;;;;;0.83;0.80;;;24.80;69.30;;;;;;5036596;28;20450;-87
2022/10/05 18:01:34;;;;;;;1.70;1.07;;;24.90;69.30;;;;;;5037257;28;20532;-90
2022/10/05 18:04:31;;;;;;;1.20;1.10;;;24.90;69.50;;;;;;5038513;28;20480;-96
2022/10/05 18:07:05;;;;;;;1.40;1.00;;;24.90;69.50;;;;;;5044923;28;20494;-89
2022/10/05 18:09:49;;;;;;;1.33;1.23;;;24.90;70.50;;;;;;5040388;28;20439;-89
2022/10/05 18:12:41;;;;;;;2.43;1.03;;;24.90;69.60;;;;;;5040580;28;20467;-92
2022/10/05 18:15:37;;;;;;;1.10;1.00;;;24.90;69.60;;;;;;5038344;28;20486;-89
2022/10/05 18:18:54;;;;;;;1.20;1.10;;;24.90;69.70;;;;;;5038657;28;20532;-94
2022/10/05 18:21:57;;;;;;;1.63;1.17;;;24.90;69.60;;;;;;5043744;28;20572;-88
2022/10/05 18:25:04;;;;;;;4.27;1.17;;;24.90;69.70;;;;;;5040311;28;20455;-90
2022/10/05 18:28:16;;;;;;;4.20;1.43;;;24.90;69.60;;;;;;4942453;29;20439;-90
2022/10/05 18:31:00;;;;;;;0.90;0.80;;;24.90;69.70;;;;;;5039388;28;20531;-90
2022/10/05 18:33:41;;;;;;;0.87;0.87;;;24.90;69.80;;;;;;5040295;28;20428;-95
2022/10/05 18:36:35;;;;;;;1.07;0.97;;;24.90;69.70;;;;;;5041876;28;20571;-89
2022/10/05 18:39:13;;;;;;;1.00;0.90;;;24.90;70.60;;;;;;5031101;28;20538;-89
2022/10/05 18:41:54;;;;;;;2.00;1.00;;;24.90;69.80;;;;;;5038648;28;20518;-91
2022/10/05 18:44:31;;;;;;;1.87;1.00;;;24.90;69.70;;;;;;5039759;28;20517;-93
2022/10/05 18:47:07;;;;;;;1.70;1.00;;;24.90;69.70;;;;;;5040237;28;20838;-90
2022/10/05 18:49:54;;;;;;;2.03;1.20;;;24.90;69.70;;;;;;5039501;28;20930;-90
2022/10/05 18:52:28;;;;;;;1.13;1.00;;;24.90;69.60;;;;;;5036214;28;20452;-88
2022/10/05 18:55:05;;;;;;;1.13;1.03;;;24.90;69.70;;;;;;5036047;28;20803;-94
2022/10/05 18:58:06;;;;;;;1.13;1.00;;;24.90;69.70;;;;;;5035546;28;20985;-89
2022/10/05 19:00:58;;;;;;;1.00;0.90;;;25.00;69.70;;;;;;5037371;28;20444;-89
2022/10/05 19:03:34;;;;;;;1.00;0.90;;;24.90;69.80;;;;;;5036523;28;20450;-95
2022/10/05 19:06:12;;;;;;;1.27;1.17;;;24.90;69.80;;;;;;5035846;28;20523;-96
2022/10/05 19:08:49;;;;;;;1.30;1.20;;;24.90;70.50;;;;;;5035176;28;20440;-88
2022/10/05 19:11:23;;;;;;;1.20;1.10;;;24.90;69.70;;;;;;5037278;28;20491;-88
2022/10/05 19:14:11;;;;;;;2.23;1.23;;;24.90;69.70;;;;;;5037226;28;20794;-96
2022/10/05 19:16:55;;;;;;;1.60;1.13;;;25.00;69.70;;;;;;5036385;28;20445;-89
2022/10/05 19:19:42;;;;;;;0.93;0.90;;;24.90;69.70;;;;;;5036138;28;20446;-92
2022/10/05 19:22:18;;;;;;;2.00;1.10;;;25.00;69.80;;;;;;5043334;28;20439;-88
2022/10/05 19:25:00;;;;;;;26.07;1.40;;;24.90;69.80;;;;;;5035896;28;20463;-90
2022/10/05 19:27:39;;;;;;;1.10;1.00;;;24.90;69.60;;;;;;5036090;28;20437;-96
2022/10/05 19:30:20;;;;;;;1.10;1.00;;;24.90;69.70;;;;;;5037612;28;20433;-88
2022/10/05 19:33:13;;;;;;;2.00;0.90;;;25.00;69.70;;;;;;5049090;28;20840;-87
2022/10/05 19:35:57;;;;;;;1.00;0.90;;;25.00;69.70;;;;;;5036322;28;20464;-88
2022/10/05 19:38:32;;;;;;;1.97;1.00;;;25.00;69.80;;;;;;5037409;28;20512;-89
2022/10/05 19:41:05;;;;;;;1.07;0.97;;;25.00;69.80;;;;;;5039395;28;20453;-96
2022/10/05 19:43:56;;;;;;;0.80;0.80;;;25.00;69.80;;;;;;5036634;28;20445;-90
2022/10/05 19:46:39;;;;;;;1.20;1.10;;;25.00;69.80;;;;;;5037132;28;20433;-96
2022/10/05 19:49:09;;;;;;;2.20;0.97;;;25.00;69.80;;;;;;5037633;28;20520;-89
2022/10/05 19:51:47;;;;;;;1.77;1.03;;;24.90;69.70;;;;;;5038520;28;20436;-89
2022/10/05 19:54:24;;;;;;;1.33;0.90;;;25.00;69.70;;;;;;5037177;28;20428;-90
2022/10/05 19:56:53;;;;;;;0.90;0.70;;;25.00;69.80;;;;;;5039133;28;20534;-89
2022/10/05 19:59:23;;;;;;;1.20;1.10;;;25.00;69.80;;;;;;5038378;28;20450;-92
2022/10/05 20:01:52;;;;;;;1.20;1.10;;;25.00;69.80;;;;;;5036046;28;20441;-90
2022/10/05 20:04:34;;;;;;;2.33;1.00;;;25.00;69.80;;;;;;5040677;28;20480;-92
2022/10/05 20:07:01;;;;;;;1.00;0.80;;;25.00;69.80;;;;;;5040403;28;20493;-92
2022/10/05 20:09:28;;;;;;;1.00;0.90;;;25.00;69.90;;;;;;5040356;28;20449;-89
2022/10/05 20:11:55;;;;;;;1.13;0.90;;;24.90;69.80;;;;;;5042302;28;20444;-89
2022/10/05 20:14:29;;;;;;;1.13;1.03;;;25.00;69.80;;;;;;5043291;28;20444;-89
2022/10/05 20:20:35;;;;;;;1.20;1.10;;;25.00;69.80;;;;;;5045544;28;20414;-89
2022/10/05 20:23:22;;;;;;;1.47;0.90;;;24.90;69.70;;;;;;5043281;28;20484;-88
2022/10/05 20:27:00;;;;;;;1.10;1.00;;;24.90;69.70;;;;;;5044685;28;20526;-93
2022/10/05 20:28:36;;;;;;;0.90;0.80;;;24.90;69.80;;;;;;5039582;28;20418;-89
2022/10/05 20:31:05;;;;;;;1.10;1.00;;;24.90;69.80;;;;;;5040499;28;20787;-95
2022/10/05 20:33:34;;;;;;;1.47;0.93;;;24.90;69.80;;;;;;5037397;28;20442;-92
2022/10/05 20:36:02;;;;;;;2.07;1.17;;;24.90;69.90;;;;;;5038261;28;20471;-88
2022/10/05 20:38:30;;;;;;;1.10;1.00;;;24.90;69.70;;;;;;5037915;28;20894;-92
2022/10/05 20:40:56;;;;;;;0.87;0.80;;;24.90;69.80;;;;;;5036100;28;20456;-87
2022/10/05 20:43:26;;;;;;;1.10;1.00;;;24.90;69.80;;;;;;5040148;28;20535;-89
2022/10/05 20:45:53;;;;;;;0.90;0.80;;;24.90;69.80;;;;;;5049411;28;20468;-88
2022/10/05 20:48:20;;;;;;;1.00;0.90;;;24.90;69.80;;;;;;5041605;28;20433;-88
2022/10/05 20:50:48;;;;;;;1.00;0.90;;;24.90;69.70;;;;;;5035314;28;20478;-88
2022/10/05 20:53:15;;;;;;;1.20;1.10;;;24.90;69.80;;;;;;5039976;28;20455;-87
2022/10/05 20:55:42;;;;;;;0.90;0.80;;;24.90;69.80;;;;;;5036862;28;20448;-93
2022/10/05 20:58:09;;;;;;;1.30;1.20;;;24.90;69.80;;;;;;5037631;28;20491;-96
2022/10/05 21:03:27;;;;;;;0.90;0.80;;;24.80;69.70;;;;;;5037950;28;20428;-93
2022/10/05 21:05:56;;;;;;;2.37;1.20;;;24.90;69.90;;;;;;5049503;28;20918;-90
2022/10/05 21:11:09;;;;;;;1.00;0.90;;;24.90;69.80;;;;;;5064905;23;20475;-89
2022/10/05 21:13:37;;;;;;;1.27;1.17;;;24.90;69.90;;;;;;5026802;28;20482;-90
2022/10/05 21:16:07;;;;;;;1.43;1.07;;;24.90;69.90;;;;;;5018656;28;20452;-88
2022/10/05 21:18:34;;;;;;;1.50;0.87;;;24.90;69.90;;;;;;5022711;28;20491;-88
2022/10/05 21:21:02;;;;;;;1.10;1.00;;;24.90;69.80;;;;;;5020742;28;20454;-89